sensor_id;sensor_type;location;lat;lon;timestamp;P1;durP1;ratioP1;P2;durP2;ratioP2
12900;SDS011;6518;50.930;5.344;2022-08-19T00:01:14;18.10;;;16.50;;
12900;SDS011;6518;50.930;5.344;2022-08-19T00:03:42;18.27;;;16.63;;
12900;SDS011;6518;50.930;5.344;2022-08-19T00:06:10;19.77;;;17.88;;
12900;SDS011;6518;50.930;5.344;2022-08-19T00:08:37;19.98;;;18.08;;
12900;SDS011;6518;50.930;5.344;2022-08-19T00:11:04;19.05;;;17.45;;
12900;SDS011;6518;50.930;5.344;2022-08-19T00:13:32;19.75;;;17.95;;
12900;SDS011;6518;50.930;5.344;2022-08-19T00:16:00;20.80;;;18.70;;
12900;SDS011;6518;50.930;5.344;2022-08-19T00:18:27;21.08;;;19.20;;
12900;SDS011;6518;50.930;5.344;2022-08-19T00:20:53;22.40;;;20.38;;
12900;SDS011;6518;50.930;5.344;2022-08-19T00:23:22;21.98;;;19.80;;
12900;SDS011;6518;50.930;5.344;2022-08-19T00:25:48;22.27;;;20.27;;
12900;SDS011;6518;50.930;5.344;2022-08-19T00:28:15;22.10;;;20.05;;
12900;SDS011;6518;50.930;5.344;2022-08-19T00:30:42;23.15;;;20.20;;
12900;SDS011;6518;50.930;5.344;2022-08-19T00:33:09;21.95;;;20.05;;
12900;SDS011;6518;50.930;5.344;2022-08-19T00:35:36;19.98;;;18.30;;
12900;SDS011;6518;50.930;5.344;2022-08-19T00:38:03;22.27;;;20.17;;
12900;SDS011;6518;50.930;5.344;2022-08-19T00:40:33;20.55;;;18.70;;
12900;SDS011;6518;50.930;5.344;2022-08-19T00:43:00;20.83;;;18.92;;
12900;SDS011;6518;50.930;5.344;2022-08-19T00:45:27;21.77;;;19.67;;
12900;SDS011;6518;50.930;5.344;2022-08-19T00:47:57;19.33;;;17.38;;
12900;SDS011;6518;50.930;5.344;2022-08-19T00:50:29;21.48;;;19.35;;
12900;SDS011;6518;50.930;5.344;2022-08-19T00:52:56;19.77;;;17.80;;
12900;SDS011;6518;50.930;5.344;2022-08-19T00:55:25;20.85;;;18.95;;
12900;SDS011;6518;50.930;5.344;2022-08-19T00:57:56;21.95;;;20.02;;
12900;SDS011;6518;50.930;5.344;2022-08-19T01:00:26;17.98;;;16.42;;
12900;SDS011;6518;50.930;5.344;2022-08-19T01:02:54;19.13;;;17.42;;
12900;SDS011;6518;50.930;5.344;2022-08-19T01:05:23;19.95;;;18.10;;
12900;SDS011;6518;50.930;5.344;2022-08-19T01:07:52;19.27;;;17.65;;
12900;SDS011;6518;50.930;5.344;2022-08-19T01:10:21;20.55;;;18.67;;
12900;SDS011;6518;50.930;5.344;2022-08-19T01:12:51;22.15;;;20.02;;
12900;SDS011;6518;50.930;5.344;2022-08-19T01:15:22;23.95;;;21.67;;
12900;SDS011;6518;50.930;5.344;2022-08-19T01:17:54;22.10;;;19.90;;
12900;SDS011;6518;50.930;5.344;2022-08-19T01:20:22;19.13;;;17.33;;
12900;SDS011;6518;50.930;5.344;2022-08-19T01:22:52;22.60;;;20.55;;
12900;SDS011;6518;50.930;5.344;2022-08-19T01:25:24;23.05;;;20.95;;
12900;SDS011;6518;50.930;5.344;2022-08-19T01:27:55;22.85;;;20.83;;
12900;SDS011;6518;50.930;5.344;2022-08-19T01:30:24;24.80;;;22.45;;
12900;SDS011;6518;50.930;5.344;2022-08-19T01:32:53;23.98;;;21.60;;
12900;SDS011;6518;50.930;5.344;2022-08-19T01:35:21;23.70;;;21.50;;
12900;SDS011;6518;50.930;5.344;2022-08-19T01:37:53;25.52;;;23.05;;
12900;SDS011;6518;50.930;5.344;2022-08-19T01:40:22;24.38;;;22.08;;
12900;SDS011;6518;50.930;5.344;2022-08-19T01:42:52;25.92;;;23.40;;
12900;SDS011;6518;50.930;5.344;2022-08-19T01:45:20;25.02;;;22.73;;
12900;SDS011;6518;50.930;5.344;2022-08-19T01:47:49;25.52;;;22.95;;
12900;SDS011;6518;50.930;5.344;2022-08-19T01:50:16;26.08;;;23.58;;
12900;SDS011;6518;50.930;5.344;2022-08-19T01:52:43;24.88;;;22.48;;
12900;SDS011;6518;50.930;5.344;2022-08-19T01:55:13;25.35;;;22.85;;
12900;SDS011;6518;50.930;5.344;2022-08-19T01:57:43;27.77;;;24.88;;
12900;SDS011;6518;50.930;5.344;2022-08-19T02:00:13;26.67;;;24.08;;
12900;SDS011;6518;50.930;5.344;2022-08-19T02:02:42;27.70;;;24.83;;
12900;SDS011;6518;50.930;5.344;2022-08-19T02:05:09;23.00;;;20.77;;
12900;SDS011;6518;50.930;5.344;2022-08-19T02:07:37;29.15;;;26.15;;
12900;SDS011;6518;50.930;5.344;2022-08-19T02:10:06;30.95;;;27.60;;
12900;SDS011;6518;50.930;5.344;2022-08-19T02:12:37;26.23;;;23.63;;
12900;SDS011;6518;50.930;5.344;2022-08-19T02:15:04;28.42;;;25.58;;
12900;SDS011;6518;50.930;5.344;2022-08-19T02:17:32;25.98;;;23.40;;
12900;SDS011;6518;50.930;5.344;2022-08-19T02:20:01;26.92;;;24.33;;
12900;SDS011;6518;50.930;5.344;2022-08-19T02:22:28;27.63;;;24.77;;
12900;SDS011;6518;50.930;5.344;2022-08-19T02:24:55;25.73;;;23.23;;
12900;SDS011;6518;50.930;5.344;2022-08-19T02:27:22;28.48;;;24.35;;
12900;SDS011;6518;50.930;5.344;2022-08-19T02:29:50;27.10;;;24.30;;
12900;SDS011;6518;50.930;5.344;2022-08-19T02:32:17;28.10;;;25.30;;
12900;SDS011;6518;50.930;5.344;2022-08-19T02:34:45;26.67;;;23.98;;
12900;SDS011;6518;50.930;5.344;2022-08-19T02:37:13;28.02;;;25.23;;
12900;SDS011;6518;50.930;5.344;2022-08-19T02:39:54;30.02;;;27.05;;
12900;SDS011;6518;50.930;5.344;2022-08-19T02:42:21;28.75;;;25.67;;
12900;SDS011;6518;50.930;5.344;2022-08-19T02:44:47;30.52;;;27.25;;
12900;SDS011;6518;50.930;5.344;2022-08-19T02:47:16;30.50;;;27.40;;
12900;SDS011;6518;50.930;5.344;2022-08-19T02:49:44;31.83;;;28.55;;
12900;SDS011;6518;50.930;5.344;2022-08-19T02:52:11;31.73;;;28.33;;
12900;SDS011;6518;50.930;5.344;2022-08-19T02:54:39;31.25;;;28.15;;
12900;SDS011;6518;50.930;5.344;2022-08-19T02:57:05;30.40;;;26.90;;
12900;SDS011;6518;50.930;5.344;2022-08-19T02:59:33;33.30;;;29.67;;
12900;SDS011;6518;50.930;5.344;2022-08-19T03:02:00;30.85;;;27.85;;
12900;SDS011;6518;50.930;5.344;2022-08-19T03:04:28;33.85;;;30.30;;
12900;SDS011;6518;50.930;5.344;2022-08-19T03:06:55;34.55;;;31.08;;
12900;SDS011;6518;50.930;5.344;2022-08-19T03:09:23;35.95;;;32.05;;
12900;SDS011;6518;50.930;5.344;2022-08-19T03:11:49;35.13;;;31.52;;
12900;SDS011;6518;50.930;5.344;2022-08-19T03:14:16;36.28;;;32.45;;
12900;SDS011;6518;50.930;5.344;2022-08-19T03:16:44;40.35;;;35.35;;
12900;SDS011;6518;50.930;5.344;2022-08-19T03:19:15;37.85;;;32.67;;
12900;SDS011;6518;50.930;5.344;2022-08-19T03:21:44;37.70;;;32.75;;
12900;SDS011;6518;50.930;5.344;2022-08-19T03:24:12;38.13;;;32.78;;
12900;SDS011;6518;50.930;5.344;2022-08-19T03:26:40;38.88;;;32.85;;
12900;SDS011;6518;50.930;5.344;2022-08-19T03:29:09;39.40;;;34.40;;
12900;SDS011;6518;50.930;5.344;2022-08-19T03:31:37;34.55;;;30.92;;
12900;SDS011;6518;50.930;5.344;2022-08-19T03:34:05;39.42;;;35.13;;
12900;SDS011;6518;50.930;5.344;2022-08-19T03:36:32;40.78;;;35.47;;
12900;SDS011;6518;50.930;5.344;2022-08-19T03:39:00;41.67;;;35.42;;
12900;SDS011;6518;50.930;5.344;2022-08-19T03:41:28;37.75;;;33.35;;
12900;SDS011;6518;50.930;5.344;2022-08-19T03:43:57;36.05;;;31.10;;
12900;SDS011;6518;50.930;5.344;2022-08-19T03:46:25;41.15;;;35.13;;
12900;SDS011;6518;50.930;5.344;2022-08-19T03:48:55;41.22;;;35.83;;
12900;SDS011;6518;50.930;5.344;2022-08-19T03:51:24;36.72;;;32.75;;
12900;SDS011;6518;50.930;5.344;2022-08-19T03:53:53;38.25;;;32.80;;
12900;SDS011;6518;50.930;5.344;2022-08-19T03:56:22;37.83;;;33.72;;
12900;SDS011;6518;50.930;5.344;2022-08-19T03:58:50;44.10;;;35.40;;
12900;SDS011;6518;50.930;5.344;2022-08-19T04:01:19;43.85;;;37.83;;
12900;SDS011;6518;50.930;5.344;2022-08-19T04:03:48;40.75;;;34.55;;
12900;SDS011;6518;50.930;5.344;2022-08-19T04:06:15;43.05;;;35.17;;
12900;SDS011;6518;50.930;5.344;2022-08-19T04:08:46;44.53;;;37.70;;
12900;SDS011;6518;50.930;5.344;2022-08-19T04:11:15;43.00;;;37.63;;
12900;SDS011;6518;50.930;5.344;2022-08-19T04:13:44;42.05;;;37.55;;
12900;SDS011;6518;50.930;5.344;2022-08-19T04:16:11;47.58;;;38.88;;
12900;SDS011;6518;50.930;5.344;2022-08-19T04:18:38;45.63;;;38.10;;
12900;SDS011;6518;50.930;5.344;2022-08-19T04:21:07;39.00;;;32.75;;
12900;SDS011;6518;50.930;5.344;2022-08-19T04:23:34;41.33;;;35.70;;
12900;SDS011;6518;50.930;5.344;2022-08-19T04:26:02;43.72;;;36.50;;
12900;SDS011;6518;50.930;5.344;2022-08-19T04:28:29;40.97;;;34.53;;
12900;SDS011;6518;50.930;5.344;2022-08-19T04:30:57;47.30;;;39.13;;
12900;SDS011;6518;50.930;5.344;2022-08-19T04:33:24;43.30;;;37.55;;
12900;SDS011;6518;50.930;5.344;2022-08-19T04:35:53;47.25;;;39.25;;
12900;SDS011;6518;50.930;5.344;2022-08-19T04:38:23;45.50;;;36.88;;
12900;SDS011;6518;50.930;5.344;2022-08-19T04:40:50;46.80;;;38.75;;
12900;SDS011;6518;50.930;5.344;2022-08-19T04:43:36;46.40;;;39.90;;
12900;SDS011;6518;50.930;5.344;2022-08-19T04:46:06;44.15;;;37.67;;
12900;SDS011;6518;50.930;5.344;2022-08-19T04:48:34;41.17;;;35.78;;
12900;SDS011;6518;50.930;5.344;2022-08-19T04:51:01;45.60;;;36.85;;
12900;SDS011;6518;50.930;5.344;2022-08-19T04:53:32;47.88;;;39.05;;
12900;SDS011;6518;50.930;5.344;2022-08-19T04:56:03;47.17;;;37.58;;
12900;SDS011;6518;50.930;5.344;2022-08-19T04:58:32;47.30;;;39.40;;
12900;SDS011;6518;50.930;5.344;2022-08-19T05:00:59;45.80;;;38.08;;
12900;SDS011;6518;50.930;5.344;2022-08-19T05:03:29;44.83;;;35.95;;
12900;SDS011;6518;50.930;5.344;2022-08-19T05:05:59;47.72;;;39.65;;
12900;SDS011;6518;50.930;5.344;2022-08-19T05:08:32;50.58;;;37.22;;
12900;SDS011;6518;50.930;5.344;2022-08-19T05:11:01;44.72;;;38.33;;
12900;SDS011;6518;50.930;5.344;2022-08-19T05:13:33;40.10;;;33.60;;
12900;SDS011;6518;50.930;5.344;2022-08-19T05:16:00;43.70;;;37.20;;
12900;SDS011;6518;50.930;5.344;2022-08-19T05:18:28;45.50;;;38.28;;
12900;SDS011;6518;50.930;5.344;2022-08-19T05:21:15;49.78;;;39.78;;
12900;SDS011;6518;50.930;5.344;2022-08-19T05:24:01;48.35;;;39.75;;
12900;SDS011;6518;50.930;5.344;2022-08-19T05:26:28;47.88;;;38.78;;
12900;SDS011;6518;50.930;5.344;2022-08-19T05:28:55;50.30;;;40.42;;
12900;SDS011;6518;50.930;5.344;2022-08-19T05:31:22;47.70;;;40.60;;
12900;SDS011;6518;50.930;5.344;2022-08-19T05:33:51;50.35;;;40.60;;
12900;SDS011;6518;50.930;5.344;2022-08-19T05:36:17;45.97;;;38.42;;
12900;SDS011;6518;50.930;5.344;2022-08-19T05:38:45;46.95;;;38.45;;
12900;SDS011;6518;50.930;5.344;2022-08-19T05:41:13;47.80;;;38.08;;
12900;SDS011;6518;50.930;5.344;2022-08-19T05:43:41;48.35;;;39.17;;
12900;SDS011;6518;50.930;5.344;2022-08-19T05:46:08;43.78;;;37.45;;
12900;SDS011;6518;50.930;5.344;2022-08-19T05:48:43;43.45;;;38.30;;
12900;SDS011;6518;50.930;5.344;2022-08-19T05:51:11;43.28;;;37.15;;
12900;SDS011;6518;50.930;5.344;2022-08-19T05:53:38;42.35;;;36.65;;
12900;SDS011;6518;50.930;5.344;2022-08-19T05:56:06;40.40;;;36.03;;
12900;SDS011;6518;50.930;5.344;2022-08-19T05:58:34;40.85;;;34.95;;
12900;SDS011;6518;50.930;5.344;2022-08-19T06:01:02;39.40;;;34.72;;
12900;SDS011;6518;50.930;5.344;2022-08-19T06:03:30;42.53;;;35.15;;
12900;SDS011;6518;50.930;5.344;2022-08-19T06:05:59;38.03;;;33.78;;
12900;SDS011;6518;50.930;5.344;2022-08-19T06:08:29;48.83;;;34.33;;
12900;SDS011;6518;50.930;5.344;2022-08-19T06:10:56;38.15;;;34.05;;
12900;SDS011;6518;50.930;5.344;2022-08-19T06:13:23;38.53;;;32.85;;
12900;SDS011;6518;50.930;5.344;2022-08-19T06:15:50;35.15;;;29.30;;
12900;SDS011;6518;50.930;5.344;2022-08-19T06:18:17;36.00;;;28.83;;
12900;SDS011;6518;50.930;5.344;2022-08-19T06:20:44;36.97;;;30.55;;
12900;SDS011;6518;50.930;5.344;2022-08-19T06:23:12;33.75;;;30.15;;
12900;SDS011;6518;50.930;5.344;2022-08-19T06:25:41;31.58;;;28.27;;
12900;SDS011;6518;50.930;5.344;2022-08-19T06:28:08;31.60;;;28.30;;
12900;SDS011;6518;50.930;5.344;2022-08-19T06:30:36;32.80;;;28.23;;
12900;SDS011;6518;50.930;5.344;2022-08-19T06:33:03;32.92;;;26.92;;
12900;SDS011;6518;50.930;5.344;2022-08-19T06:35:30;30.38;;;27.15;;
12900;SDS011;6518;50.930;5.344;2022-08-19T06:37:57;30.45;;;25.25;;
12900;SDS011;6518;50.930;5.344;2022-08-19T06:40:24;29.80;;;25.48;;
12900;SDS011;6518;50.930;5.344;2022-08-19T06:42:53;28.60;;;25.55;;
12900;SDS011;6518;50.930;5.344;2022-08-19T06:45:21;31.45;;;26.40;;
12900;SDS011;6518;50.930;5.344;2022-08-19T06:47:48;25.58;;;22.88;;
12900;SDS011;6518;50.930;5.344;2022-08-19T06:50:16;29.08;;;25.13;;
12900;SDS011;6518;50.930;5.344;2022-08-19T06:52:43;23.52;;;21.10;;
12900;SDS011;6518;50.930;5.344;2022-08-19T06:55:11;25.67;;;22.42;;
12900;SDS011;6518;50.930;5.344;2022-08-19T06:57:38;27.95;;;22.65;;
12900;SDS011;6518;50.930;5.344;2022-08-19T07:00:07;25.58;;;22.13;;
12900;SDS011;6518;50.930;5.344;2022-08-19T07:02:38;31.67;;;22.60;;
12900;SDS011;6518;50.930;5.344;2022-08-19T07:05:06;23.65;;;20.77;;
12900;SDS011;6518;50.930;5.344;2022-08-19T07:07:34;25.83;;;20.95;;
12900;SDS011;6518;50.930;5.344;2022-08-19T07:10:02;27.70;;;20.90;;
12900;SDS011;6518;50.930;5.344;2022-08-19T07:12:31;22.63;;;19.88;;
12900;SDS011;6518;50.930;5.344;2022-08-19T07:14:59;27.45;;;19.45;;
12900;SDS011;6518;50.930;5.344;2022-08-19T07:17:28;24.13;;;20.52;;
12900;SDS011;6518;50.930;5.344;2022-08-19T07:19:54;25.60;;;20.38;;
12900;SDS011;6518;50.930;5.344;2022-08-19T07:22:21;21.10;;;18.42;;
12900;SDS011;6518;50.930;5.344;2022-08-19T07:24:48;25.98;;;19.08;;
12900;SDS011;6518;50.930;5.344;2022-08-19T07:27:15;21.73;;;19.00;;
12900;SDS011;6518;50.930;5.344;2022-08-19T07:29:42;23.67;;;17.40;;
12900;SDS011;6518;50.930;5.344;2022-08-19T07:32:09;27.98;;;18.27;;
12900;SDS011;6518;50.930;5.344;2022-08-19T07:34:38;21.42;;;17.13;;
12900;SDS011;6518;50.930;5.344;2022-08-19T07:37:05;27.90;;;16.67;;
12900;SDS011;6518;50.930;5.344;2022-08-19T07:39:34;21.15;;;16.23;;
12900;SDS011;6518;50.930;5.344;2022-08-19T07:42:03;21.42;;;15.80;;
12900;SDS011;6518;50.930;5.344;2022-08-19T07:44:32;19.25;;;15.63;;
12900;SDS011;6518;50.930;5.344;2022-08-19T07:47:00;24.05;;;15.73;;
12900;SDS011;6518;50.930;5.344;2022-08-19T07:49:27;20.95;;;16.58;;
12900;SDS011;6518;50.930;5.344;2022-08-19T07:51:57;19.40;;;17.17;;
12900;SDS011;6518;50.930;5.344;2022-08-19T07:54:27;21.30;;;18.00;;
12900;SDS011;6518;50.930;5.344;2022-08-19T07:56:55;20.27;;;16.52;;
12900;SDS011;6518;50.930;5.344;2022-08-19T07:59:24;19.13;;;16.02;;
12900;SDS011;6518;50.930;5.344;2022-08-19T08:01:51;17.63;;;15.70;;
12900;SDS011;6518;50.930;5.344;2022-08-19T08:04:18;22.60;;;18.17;;
12900;SDS011;6518;50.930;5.344;2022-08-19T08:07:05;20.40;;;16.95;;
12900;SDS011;6518;50.930;5.344;2022-08-19T08:09:50;22.92;;;17.02;;
12900;SDS011;6518;50.930;5.344;2022-08-19T08:12:19;18.77;;;16.45;;
12900;SDS011;6518;50.930;5.344;2022-08-19T08:14:51;19.15;;;15.55;;
12900;SDS011;6518;50.930;5.344;2022-08-19T08:17:21;17.05;;;15.27;;
12900;SDS011;6518;50.930;5.344;2022-08-19T08:19:50;18.15;;;15.80;;
12900;SDS011;6518;50.930;5.344;2022-08-19T08:22:19;18.13;;;14.85;;
12900;SDS011;6518;50.930;5.344;2022-08-19T08:25:05;19.52;;;15.32;;
12900;SDS011;6518;50.930;5.344;2022-08-19T08:27:35;16.58;;;14.75;;
12900;SDS011;6518;50.930;5.344;2022-08-19T08:30:04;16.98;;;15.10;;
12900;SDS011;6518;50.930;5.344;2022-08-19T08:32:34;19.25;;;14.70;;
12900;SDS011;6518;50.930;5.344;2022-08-19T08:35:02;20.35;;;13.90;;
12900;SDS011;6518;50.930;5.344;2022-08-19T08:37:31;16.02;;;13.27;;
12900;SDS011;6518;50.930;5.344;2022-08-19T08:39:58;19.48;;;12.60;;
12900;SDS011;6518;50.930;5.344;2022-08-19T08:42:27;17.38;;;14.30;;
12900;SDS011;6518;50.930;5.344;2022-08-19T08:44:58;15.68;;;13.52;;
12900;SDS011;6518;50.930;5.344;2022-08-19T08:47:28;18.98;;;13.35;;
12900;SDS011;6518;50.930;5.344;2022-08-19T08:50:01;15.05;;;13.32;;
12900;SDS011;6518;50.930;5.344;2022-08-19T08:52:33;16.48;;;13.30;;
12900;SDS011;6518;50.930;5.344;2022-08-19T08:55:03;15.48;;;12.93;;
12900;SDS011;6518;50.930;5.344;2022-08-19T08:57:35;14.30;;;11.73;;
12900;SDS011;6518;50.930;5.344;2022-08-19T09:00:06;12.32;;;10.80;;
12900;SDS011;6518;50.930;5.344;2022-08-19T09:02:35;24.63;;;10.55;;
12900;SDS011;6518;50.930;5.344;2022-08-19T09:05:02;12.07;;;10.80;;
12900;SDS011;6518;50.930;5.344;2022-08-19T09:07:34;15.77;;;10.38;;
12900;SDS011;6518;50.930;5.344;2022-08-19T09:10:09;17.08;;;11.38;;
12900;SDS011;6518;50.930;5.344;2022-08-19T09:12:43;12.38;;;9.75;;
12900;SDS011;6518;50.930;5.344;2022-08-19T09:15:18;12.18;;;8.95;;
12900;SDS011;6518;50.930;5.344;2022-08-19T09:17:53;10.30;;;9.20;;
12900;SDS011;6518;50.930;5.344;2022-08-19T09:20:21;11.38;;;9.25;;
12900;SDS011;6518;50.930;5.344;2022-08-19T09:22:50;16.15;;;10.13;;
12900;SDS011;6518;50.930;5.344;2022-08-19T09:25:18;12.50;;;9.50;;
12900;SDS011;6518;50.930;5.344;2022-08-19T09:27:47;14.73;;;10.60;;
12900;SDS011;6518;50.930;5.344;2022-08-19T09:30:16;13.85;;;10.30;;
12900;SDS011;6518;50.930;5.344;2022-08-19T09:32:44;11.82;;;10.30;;
12900;SDS011;6518;50.930;5.344;2022-08-19T09:35:12;12.30;;;9.57;;
12900;SDS011;6518;50.930;5.344;2022-08-19T09:37:39;11.10;;;9.43;;
12900;SDS011;6518;50.930;5.344;2022-08-19T09:40:09;12.80;;;8.13;;
12900;SDS011;6518;50.930;5.344;2022-08-19T09:42:37;9.35;;;8.35;;
12900;SDS011;6518;50.930;5.344;2022-08-19T09:45:05;10.60;;;8.45;;
12900;SDS011;6518;50.930;5.344;2022-08-19T09:47:32;10.75;;;7.85;;
12900;SDS011;6518;50.930;5.344;2022-08-19T09:50:01;9.27;;;6.78;;
12900;SDS011;6518;50.930;5.344;2022-08-19T09:52:28;9.13;;;7.55;;
12900;SDS011;6518;50.930;5.344;2022-08-19T09:54:55;8.98;;;7.45;;
12900;SDS011;6518;50.930;5.344;2022-08-19T09:57:23;9.00;;;7.28;;
12900;SDS011;6518;50.930;5.344;2022-08-19T09:59:50;9.50;;;6.05;;
12900;SDS011;6518;50.930;5.344;2022-08-19T10:02:16;10.02;;;5.78;;
12900;SDS011;6518;50.930;5.344;2022-08-19T10:04:43;8.20;;;4.70;;
12900;SDS011;6518;50.930;5.344;2022-08-19T10:07:29;8.95;;;4.43;;
12900;SDS011;6518;50.930;5.344;2022-08-19T10:09:56;5.55;;;4.38;;
12900;SDS011;6518;50.930;5.344;2022-08-19T10:12:24;5.95;;;4.40;;
12900;SDS011;6518;50.930;5.344;2022-08-19T10:14:51;5.80;;;4.40;;
12900;SDS011;6518;50.930;5.344;2022-08-19T10:17:19;7.43;;;4.20;;
12900;SDS011;6518;50.930;5.344;2022-08-19T10:19:46;6.57;;;4.07;;
12900;SDS011;6518;50.930;5.344;2022-08-19T10:22:13;6.15;;;4.53;;
12900;SDS011;6518;50.930;5.344;2022-08-19T10:24:40;7.57;;;4.60;;
12900;SDS011;6518;50.930;5.344;2022-08-19T10:27:07;5.32;;;4.20;;
12900;SDS011;6518;50.930;5.344;2022-08-19T10:29:36;4.55;;;3.90;;
12900;SDS011;6518;50.930;5.344;2022-08-19T10:32:03;6.97;;;4.00;;
12900;SDS011;6518;50.930;5.344;2022-08-19T10:34:32;9.95;;;4.63;;
12900;SDS011;6518;50.930;5.344;2022-08-19T10:37:00;7.53;;;4.65;;
12900;SDS011;6518;50.930;5.344;2022-08-19T10:39:27;7.00;;;3.88;;
12900;SDS011;6518;50.930;5.344;2022-08-19T10:41:54;7.03;;;4.50;;
12900;SDS011;6518;50.930;5.344;2022-08-19T10:44:22;9.38;;;4.47;;
12900;SDS011;6518;50.930;5.344;2022-08-19T10:46:51;5.07;;;4.30;;
12900;SDS011;6518;50.930;5.344;2022-08-19T10:49:18;4.78;;;3.83;;
12900;SDS011;6518;50.930;5.344;2022-08-19T10:51:45;6.57;;;3.60;;
12900;SDS011;6518;50.930;5.344;2022-08-19T10:54:29;5.93;;;4.45;;
12900;SDS011;6518;50.930;5.344;2022-08-19T10:57:13;4.93;;;3.60;;
12900;SDS011;6518;50.930;5.344;2022-08-19T10:59:40;5.20;;;3.58;;
12900;SDS011;6518;50.930;5.344;2022-08-19T11:02:09;4.50;;;3.92;;
12900;SDS011;6518;50.930;5.344;2022-08-19T11:04:38;6.72;;;3.30;;
12900;SDS011;6518;50.930;5.344;2022-08-19T11:07:06;4.40;;;3.90;;
12900;SDS011;6518;50.930;5.344;2022-08-19T11:09:36;10.57;;;4.25;;
12900;SDS011;6518;50.930;5.344;2022-08-19T11:12:05;6.75;;;3.92;;
12900;SDS011;6518;50.930;5.344;2022-08-19T11:14:33;6.03;;;4.00;;
12900;SDS011;6518;50.930;5.344;2022-08-19T11:17:01;6.18;;;4.68;;
12900;SDS011;6518;50.930;5.344;2022-08-19T11:19:30;4.43;;;3.95;;
12900;SDS011;6518;50.930;5.344;2022-08-19T11:21:58;4.75;;;4.20;;
12900;SDS011;6518;50.930;5.344;2022-08-19T11:24:27;5.57;;;4.00;;
12900;SDS011;6518;50.930;5.344;2022-08-19T11:26:55;5.50;;;3.88;;
12900;SDS011;6518;50.930;5.344;2022-08-19T11:29:29;4.95;;;3.97;;
12900;SDS011;6518;50.930;5.344;2022-08-19T11:31:57;5.88;;;4.97;;
12900;SDS011;6518;50.930;5.344;2022-08-19T11:34:26;5.00;;;4.50;;
12900;SDS011;6518;50.930;5.344;2022-08-19T11:36:57;11.88;;;8.00;;
12900;SDS011;6518;50.930;5.344;2022-08-19T11:39:25;7.30;;;4.38;;
12900;SDS011;6518;50.930;5.344;2022-08-19T11:41:53;4.50;;;4.05;;
12900;SDS011;6518;50.930;5.344;2022-08-19T11:44:21;7.68;;;4.72;;
12900;SDS011;6518;50.930;5.344;2022-08-19T11:46:48;5.75;;;4.65;;
12900;SDS011;6518;50.930;5.344;2022-08-19T11:49:15;8.38;;;4.50;;
12900;SDS011;6518;50.930;5.344;2022-08-19T11:51:44;5.22;;;4.30;;
12900;SDS011;6518;50.930;5.344;2022-08-19T11:54:14;8.73;;;6.93;;
12900;SDS011;6518;50.930;5.344;2022-08-19T11:56:42;6.05;;;4.15;;
12900;SDS011;6518;50.930;5.344;2022-08-19T11:59:09;5.05;;;3.80;;
12900;SDS011;6518;50.930;5.344;2022-08-19T12:01:36;5.57;;;3.92;;
12900;SDS011;6518;50.930;5.344;2022-08-19T12:04:05;5.55;;;4.00;;
12900;SDS011;6518;50.930;5.344;2022-08-19T12:06:33;4.85;;;3.90;;
12900;SDS011;6518;50.930;5.344;2022-08-19T12:09:00;5.22;;;3.50;;
12900;SDS011;6518;50.930;5.344;2022-08-19T12:11:31;4.30;;;3.65;;
12900;SDS011;6518;50.930;5.344;2022-08-19T12:13:58;6.32;;;3.50;;
12900;SDS011;6518;50.930;5.344;2022-08-19T12:16:26;4.70;;;3.50;;
12900;SDS011;6518;50.930;5.344;2022-08-19T12:18:55;4.32;;;3.58;;
12900;SDS011;6518;50.930;5.344;2022-08-19T12:21:25;4.80;;;4.07;;
12900;SDS011;6518;50.930;5.344;2022-08-19T12:23:54;4.65;;;4.00;;
12900;SDS011;6518;50.930;5.344;2022-08-19T12:26:23;5.72;;;4.18;;
12900;SDS011;6518;50.930;5.344;2022-08-19T12:28:52;6.88;;;4.03;;
12900;SDS011;6518;50.930;5.344;2022-08-19T12:31:20;6.05;;;3.58;;
12900;SDS011;6518;50.930;5.344;2022-08-19T12:33:47;5.93;;;4.90;;
12900;SDS011;6518;50.930;5.344;2022-08-19T12:36:14;6.43;;;4.80;;
12900;SDS011;6518;50.930;5.344;2022-08-19T12:38:42;7.88;;;4.82;;
12900;SDS011;6518;50.930;5.344;2022-08-19T12:41:10;6.75;;;4.20;;
12900;SDS011;6518;50.930;5.344;2022-08-19T12:43:38;6.00;;;4.18;;
12900;SDS011;6518;50.930;5.344;2022-08-19T12:46:07;5.25;;;4.20;;
12900;SDS011;6518;50.930;5.344;2022-08-19T12:48:35;5.57;;;3.90;;
12900;SDS011;6518;50.930;5.344;2022-08-19T12:51:05;5.60;;;3.65;;
12900;SDS011;6518;50.930;5.344;2022-08-19T12:53:33;4.63;;;3.70;;
12900;SDS011;6518;50.930;5.344;2022-08-19T12:56:00;8.68;;;3.53;;
12900;SDS011;6518;50.930;5.344;2022-08-19T12:58:28;4.50;;;3.90;;
12900;SDS011;6518;50.930;5.344;2022-08-19T13:00:55;4.32;;;3.47;;
12900;SDS011;6518;50.930;5.344;2022-08-19T13:03:23;3.80;;;3.42;;
12900;SDS011;6518;50.930;5.344;2022-08-19T13:05:54;4.72;;;3.90;;
12900;SDS011;6518;50.930;5.344;2022-08-19T13:08:21;4.28;;;3.88;;
12900;SDS011;6518;50.930;5.344;2022-08-19T13:10:48;10.63;;;4.03;;
12900;SDS011;6518;50.930;5.344;2022-08-19T13:13:15;8.00;;;3.97;;
12900;SDS011;6518;50.930;5.344;2022-08-19T13:15:43;3.90;;;3.60;;
12900;SDS011;6518;50.930;5.344;2022-08-19T13:18:10;4.38;;;3.25;;
12900;SDS011;6518;50.930;5.344;2022-08-19T13:20:39;5.75;;;4.28;;
12900;SDS011;6518;50.930;5.344;2022-08-19T13:23:06;4.40;;;3.53;;
12900;SDS011;6518;50.930;5.344;2022-08-19T13:25:33;7.07;;;3.20;;
12900;SDS011;6518;50.930;5.344;2022-08-19T13:28:02;5.75;;;3.15;;
12900;SDS011;6518;50.930;5.344;2022-08-19T13:30:29;7.32;;;3.10;;
12900;SDS011;6518;50.930;5.344;2022-08-19T13:33:14;3.30;;;2.60;;
12900;SDS011;6518;50.930;5.344;2022-08-19T13:35:43;3.25;;;2.45;;
12900;SDS011;6518;50.930;5.344;2022-08-19T13:38:12;5.55;;;2.63;;
12900;SDS011;6518;50.930;5.344;2022-08-19T13:40:40;3.75;;;2.58;;
12900;SDS011;6518;50.930;5.344;2022-08-19T13:43:08;5.35;;;2.60;;
12900;SDS011;6518;50.930;5.344;2022-08-19T13:45:35;3.20;;;2.38;;
12900;SDS011;6518;50.930;5.344;2022-08-19T13:48:03;4.40;;;2.50;;
12900;SDS011;6518;50.930;5.344;2022-08-19T13:50:34;2.85;;;2.42;;
12900;SDS011;6518;50.930;5.344;2022-08-19T13:53:05;3.08;;;2.00;;
12900;SDS011;6518;50.930;5.344;2022-08-19T13:55:33;3.97;;;2.20;;
12900;SDS011;6518;50.930;5.344;2022-08-19T13:58:01;5.90;;;2.30;;
12900;SDS011;6518;50.930;5.344;2022-08-19T14:00:30;2.50;;;2.05;;
12900;SDS011;6518;50.930;5.344;2022-08-19T14:02:58;2.63;;;2.17;;
12900;SDS011;6518;50.930;5.344;2022-08-19T14:05:26;3.90;;;2.20;;
12900;SDS011;6518;50.930;5.344;2022-08-19T14:07:54;3.28;;;2.60;;
12900;SDS011;6518;50.930;5.344;2022-08-19T14:10:23;2.88;;;2.50;;
12900;SDS011;6518;50.930;5.344;2022-08-19T14:12:52;3.08;;;2.78;;
12900;SDS011;6518;50.930;5.344;2022-08-19T14:15:20;4.90;;;3.20;;
12900;SDS011;6518;50.930;5.344;2022-08-19T14:17:49;4.28;;;2.38;;
12900;SDS011;6518;50.930;5.344;2022-08-19T14:20:16;2.90;;;2.60;;
12900;SDS011;6518;50.930;5.344;2022-08-19T14:22:43;2.75;;;2.50;;
12900;SDS011;6518;50.930;5.344;2022-08-19T14:25:12;3.08;;;2.63;;
12900;SDS011;6518;50.930;5.344;2022-08-19T14:27:42;4.40;;;2.40;;
12900;SDS011;6518;50.930;5.344;2022-08-19T14:30:11;2.70;;;2.50;;
12900;SDS011;6518;50.930;5.344;2022-08-19T14:32:40;2.78;;;2.42;;
12900;SDS011;6518;50.930;5.344;2022-08-19T14:35:08;3.30;;;3.00;;
12900;SDS011;6518;50.930;5.344;2022-08-19T14:37:37;3.08;;;2.50;;
12900;SDS011;6518;50.930;5.344;2022-08-19T14:40:05;2.80;;;2.60;;
12900;SDS011;6518;50.930;5.344;2022-08-19T14:42:33;4.57;;;3.00;;
12900;SDS011;6518;50.930;5.344;2022-08-19T14:45:02;5.63;;;4.85;;
12900;SDS011;6518;50.930;5.344;2022-08-19T14:47:31;4.35;;;2.83;;
12900;SDS011;6518;50.930;5.344;2022-08-19T14:49:58;3.35;;;2.42;;
12900;SDS011;6518;50.930;5.344;2022-08-19T14:52:25;4.10;;;2.80;;